Greenville, Georgia
Current Conditions -  °F | °C
As of 12:15 AM on Friday 31 Oct 2014 (Local Time) from KCCO Reporting Station
Clear Clear  
Wind Chill: 53°   Ceiling: Unl
Heat Index: 53°   Visibility: 10mi
Dew Point: 42°   Wind: 6mph
Humidity: 68%   Direction: 320°NW
Pressure: 29.98"   Gusts: NA
Location:  33.03°N, 84.71°W
Report Text: KCCO 310415Z AUTO 32005KT 10SM CLR 11/06 A2998 RMK AO2 T01140056
Loading
Personal Weather Stations






























Interactive Weather Map
Tropical Storm Tracking
New forecast layout! Learn more

10-Day Weather Forecast

Advertisements
Track Severe Weather on mobile